createdAt,value
2022-11-05T00:01:03.839Z,11.00
2022-11-05T00:16:24.611Z,10.90
2022-11-05T00:31:26.501Z,10.80
2022-11-05T00:46:28.360Z,10.80
2022-11-05T01:01:30.396Z,10.70
2022-11-05T01:16:33.055Z,10.60
2022-11-05T01:31:34.966Z,10.20
2022-11-05T01:46:45.903Z,10.00
2022-11-05T02:01:48.137Z,9.80
2022-11-05T02:17:13.505Z,9.80
2022-11-05T02:32:18.293Z,9.70
2022-11-05T02:47:44.242Z,9.80
2022-11-05T03:02:46.356Z,9.80
2022-11-05T03:18:06.392Z,9.70
2022-11-05T03:33:22.280Z,9.60
2022-11-05T03:48:27.649Z,9.70
2022-11-05T04:03:36.341Z,9.60
2022-11-05T04:18:38.402Z,9.70
2022-11-05T04:33:40.229Z,9.70
2022-11-05T04:48:42.077Z,9.50
2022-11-05T05:03:44.239Z,9.50
2022-11-05T05:18:46.619Z,9.40
2022-11-05T05:33:49.014Z,9.50
2022-11-05T05:48:52.205Z,9.70
2022-11-05T06:03:54.094Z,9.50
2022-11-05T06:18:55.977Z,9.60
2022-11-05T06:33:57.803Z,9.60
2022-11-05T06:49:00.010Z,9.70
2022-11-05T07:04:02.051Z,9.80
2022-11-05T07:19:04.226Z,9.70
2022-11-05T07:34:06.105Z,9.80
2022-11-05T07:49:07.944Z,9.90
2022-11-05T08:04:09.834Z,10.10
2022-11-05T08:19:12.015Z,10.20
2022-11-05T08:34:13.962Z,10.50
2022-11-05T08:49:15.987Z,10.80
2022-11-05T09:04:17.849Z,10.60
2022-11-05T09:19:20.889Z,10.90
2022-11-05T09:34:23.598Z,11.00
2022-11-05T09:49:58.000Z,11.20
2022-11-05T10:05:09.421Z,11.10
2022-11-05T10:20:33.742Z,11.40
2022-11-05T10:35:41.536Z,11.40
2022-11-05T10:50:44.778Z,11.40
2022-11-05T11:05:46.696Z,11.40
2022-11-05T11:20:48.573Z,11.90
2022-11-05T11:35:50.730Z,12.20
2022-11-05T11:50:52.769Z,12.40
2022-11-05T12:06:16.845Z,12.10
2022-11-05T12:21:52.119Z,12.00
2022-11-05T12:37:25.490Z,12.10
2022-11-05T12:52:40.522Z,12.20
2022-11-05T13:07:59.688Z,12.90
2022-11-05T13:23:12.845Z,13.00
2022-11-05T13:38:40.677Z,12.70
2022-11-05T13:54:19.819Z,12.70
2022-11-05T14:09:27.497Z,12.50
2022-11-05T14:24:41.517Z,12.20
2022-11-05T14:40:23.602Z,12.00
2022-11-05T14:55:33.132Z,12.00
2022-11-05T15:10:37.514Z,11.80
2022-11-05T15:26:03.069Z,11.80
2022-11-05T15:41:06.485Z,11.10
2022-11-05T15:56:28.725Z,10.80
2022-11-05T16:11:30.824Z,10.60
2022-11-05T16:27:01.975Z,10.50
2022-11-05T16:42:13.179Z,10.70
2022-11-05T16:57:31.174Z,10.70
2022-11-05T17:12:34.192Z,10.50
2022-11-05T17:27:36.103Z,10.30
2022-11-05T17:42:37.993Z,10.10
2022-11-05T17:57:39.839Z,10.10
2022-11-05T18:12:42.622Z,9.90
2022-11-05T18:27:44.756Z,9.80
2022-11-05T18:42:46.973Z,9.50
2022-11-05T18:57:48.852Z,9.00
2022-11-05T19:12:50.763Z,8.80
2022-11-05T19:27:53.722Z,8.70
2022-11-05T19:42:55.575Z,8.70
2022-11-05T19:57:57.482Z,8.60
2022-11-05T20:12:59.346Z,8.50
2022-11-05T20:28:01.199Z,8.30
2022-11-05T20:43:03.147Z,8.30
2022-11-05T20:58:05.017Z,8.10
2022-11-05T21:13:06.959Z,8.00
2022-11-05T21:28:10.018Z,7.90
2022-11-05T21:43:12.640Z,7.80
2022-11-05T21:58:54.853Z,7.80
2022-11-05T22:13:56.715Z,7.70
2022-11-05T22:28:58.715Z,7.40
2022-11-05T22:44:00.864Z,7.60
2022-11-05T22:59:03.969Z,7.60
2022-11-05T23:14:08.224Z,7.70
2022-11-05T23:29:10.148Z,7.20
2022-11-05T23:44:30.379Z,7.10
2022-11-05T23:59:32.337Z,7.00
